Terminal Aerodrome Forecast
Issued by NWS

Home | Current Version | Previous Version | Text Only | Print | Product List | Glossary On
Versions: 1 2 3 4 5 6 7 8 9 10 11 12 13 14 15
000
FTUS42 TJSJ 040525
TAFJMZ
TAF
TJMZ 040525Z 0406/0506 VRB04KT P6SM FEW030
     FM041430 28007KT P6SM FEW030
     FM041730 26010KT P6SM VCTS SCT020CB BKN040
     FM042230 10010KT P6SM VCSH SCT030
      AMD NOT SKED=

USA.gov is the U.S. government's official web portal to all federal, state and local government web resources and services.